Time;durP1;ratioP1;P1;durP2;ratioP2;P2;SDS_P1;SDS_P2;PMS_P1;PMS_P2;Temp;Humidity;BMP_temperature;BMP_pressure;BME280_temperature;BME280_humidity;BME280_pressure;Samples;Min_cycle;Max_cycle;Signal;HPM_P1;HPM_P2
2023/03/21 00:00:29;;;;;;;55.55;37.05;;;9.20;99.90;;;;;;4991808;28;20778;-76
2023/03/21 00:02:55;;;;;;;59.58;35.92;;;9.10;99.90;;;;;;4992988;28;20514;-76
2023/03/21 00:05:20;;;;;;;52.50;35.35;;;9.10;99.90;;;;;;4988935;28;20042;-76
2023/03/21 00:07:46;;;;;;;54.30;34.58;;;9.20;99.90;;;;;;4991570;28;20046;-76
2023/03/21 00:10:12;;;;;;;61.15;37.53;;;9.10;99.90;;;;;;4973220;28;20055;-76
2023/03/21 00:12:38;;;;;;;58.53;37.22;;;9.10;99.90;;;;;;4971164;28;20050;-76
2023/03/21 00:15:06;;;;;;;52.13;35.15;;;9.20;99.90;;;;;;4992630;28;20401;-76
2023/03/21 00:17:32;;;;;;;47.22;32.42;;;9.20;99.90;;;;;;4992466;28;20053;-76
2023/03/21 00:19:59;;;;;;;57.40;35.72;;;9.20;99.90;;;;;;4992832;28;20100;-76
2023/03/21 00:22:26;;;;;;;49.72;33.22;;;9.20;99.90;;;;;;4991124;28;20431;-76
2023/03/21 00:24:53;;;;;;;61.83;37.28;;;9.10;99.90;;;;;;4992423;28;20073;-76
2023/03/21 00:27:19;;;;;;;61.75;34.35;;;9.20;99.90;;;;;;4989376;28;20050;-75
2023/03/21 00:29:48;;;;;;;57.22;33.50;;;9.20;99.90;;;;;;4991951;28;20065;-75
2023/03/21 00:32:17;;;;;;;54.22;33.38;;;9.20;99.90;;;;;;4983432;28;20056;-76
2023/03/21 00:34:43;;;;;;;58.10;36.15;;;9.20;99.90;;;;;;4991615;28;20395;-75
2023/03/21 00:37:13;;;;;;;65.20;36.20;;;9.10;99.90;;;;;;4992051;28;20757;-75
2023/03/21 00:39:39;;;;;;;68.60;35.58;;;9.20;99.90;;;;;;4989281;28;20053;-75
2023/03/21 00:42:05;;;;;;;60.38;32.80;;;9.20;99.90;;;;;;4973943;28;20756;-75
2023/03/21 00:44:35;;;;;;;62.45;34.13;;;9.20;99.90;;;;;;4968805;28;20050;-75
2023/03/21 00:47:04;;;;;;;67.00;35.15;;;9.20;99.90;;;;;;4973942;28;20057;-75
2023/03/21 00:49:33;;;;;;;67.72;33.80;;;9.30;99.90;;;;;;4974046;28;20056;-75
2023/03/21 00:51:59;;;;;;;51.60;29.52;;;9.30;99.90;;;;;;4988288;28;20046;-75
2023/03/21 00:54:25;;;;;;;51.92;29.50;;;9.30;99.90;;;;;;4990578;28;20078;-76
2023/03/21 00:56:52;;;;;;;56.25;30.80;;;9.30;99.90;;;;;;4974191;28;20169;-76
2023/03/21 00:59:18;;;;;;;56.20;30.80;;;9.20;99.90;;;;;;4989147;28;20046;-76
2023/03/21 01:01:45;;;;;;;69.40;35.40;;;9.30;99.90;;;;;;4990018;28;20050;-76
2023/03/21 01:04:13;;;;;;;48.95;28.55;;;9.30;99.90;;;;;;4989561;28;20137;-76
2023/03/21 01:06:41;;;;;;;48.55;27.02;;;9.40;99.90;;;;;;4973172;28;20416;-75
2023/03/21 01:09:15;;;;;;;57.80;29.73;;;9.30;99.90;;;;;;4989766;28;20054;-75
2023/03/21 01:11:41;;;;;;;56.13;29.33;;;9.30;99.90;;;;;;4973817;28;20038;-75
2023/03/21 01:14:07;;;;;;;50.20;27.27;;;9.40;99.90;;;;;;4969684;28;20042;-75
2023/03/21 01:16:34;;;;;;;53.35;28.15;;;9.40;99.90;;;;;;4983516;28;20047;-76
2023/03/21 01:19:00;;;;;;;45.13;28.10;;;9.40;99.90;;;;;;4989210;28;20058;-76
2023/03/21 01:21:26;;;;;;;44.67;25.20;;;9.30;99.90;;;;;;4973141;28;20053;-75
2023/03/21 01:23:51;;;;;;;40.15;25.17;;;9.40;99.90;;;;;;4988661;28;20062;-76
2023/03/21 01:26:17;;;;;;;57.90;27.70;;;9.40;99.90;;;;;;4990324;28;20046;-76
2023/03/21 01:28:44;;;;;;;47.47;24.80;;;9.30;99.90;;;;;;4972762;28;20050;-76
2023/03/21 01:31:12;;;;;;;50.72;27.50;;;9.40;99.90;;;;;;4988949;28;20055;-76
2023/03/21 01:33:38;;;;;;;;;;;9.40;99.90;;;;;;4986271;28;20038;-75
2023/03/21 01:36:05;;;;;;;48.75;25.85;;;9.40;99.90;;;;;;4968911;28;19957;-76
2023/03/21 01:38:31;;;;;;;50.65;27.08;;;9.40;99.90;;;;;;4990102;28;20050;-75
2023/03/21 01:41:01;;;;;;;49.50;27.80;;;9.40;99.90;;;;;;4973853;28;20046;-77
2023/03/21 01:43:30;;;;;;;57.15;28.92;;;9.40;99.90;;;;;;4992615;28;20048;-76
2023/03/21 01:46:27;;;;;;;50.42;28.20;;;9.40;99.90;;;;;;4990220;28;20120;-75
2023/03/21 01:49:26;;;;;;;40.58;24.92;;;9.40;99.90;;;;;;4989719;28;20381;-76
2023/03/21 01:51:57;;;;;;;50.97;26.38;;;9.40;99.90;;;;;;4969595;28;20053;-76
2023/03/21 01:54:28;;;;;;;45.85;27.23;;;9.40;99.90;;;;;;4972877;28;20046;-76
2023/03/21 01:56:56;;;;;;;43.28;24.85;;;9.40;99.90;;;;;;4965489;28;20046;-76
2023/03/21 01:59:21;;;;;;;;;;;9.40;99.90;;;;;;4990110;28;20050;-76
2023/03/21 02:01:49;;;;;;;46.40;26.63;;;9.40;99.90;;;;;;4990118;28;20332;-76
2023/03/21 02:04:20;;;;;;;48.47;28.63;;;9.40;99.90;;;;;;4986649;28;20093;-76
2023/03/21 02:06:57;;;;;;;46.47;26.95;;;9.40;99.90;;;;;;4990034;28;20047;-76
2023/03/21 02:09:27;;;;;;;49.35;27.92;;;9.40;99.90;;;;;;4980074;28;20050;-75
2023/03/21 02:11:54;;;;;;;48.60;27.88;;;9.40;99.90;;;;;;4973143;28;20053;-76
2023/03/21 02:14:20;;;;;;;49.35;28.10;;;9.40;99.90;;;;;;4985908;28;20050;-76
2023/03/21 02:17:01;;;;;;;51.17;27.80;;;9.40;99.90;;;;;;4973230;28;20084;-76
2023/03/21 02:20:07;;;;;;;45.83;27.27;;;9.50;99.90;;;;;;4972425;28;20042;-75
2023/03/21 02:23:07;;;;;;;53.80;29.13;;;9.40;99.90;;;;;;4954569;28;20061;-76
2023/03/21 02:26:02;;;;;;;51.15;27.95;;;9.50;99.90;;;;;;4964337;28;20185;-75
2023/03/21 02:28:36;;;;;;;51.95;27.40;;;9.40;99.90;;;;;;4988719;28;20054;-75
2023/03/21 02:31:32;;;;;;;50.85;29.08;;;9.40;99.90;;;;;;4990268;28;20054;-75
2023/03/21 02:34:26;;;;;;;52.72;29.50;;;9.40;99.90;;;;;;4972558;28;20407;-75
2023/03/21 02:37:15;;;;;;;52.95;29.95;;;9.40;99.90;;;;;;4976941;28;20104;-76
2023/03/21 02:40:12;;;;;;;54.53;29.95;;;9.40;99.90;;;;;;4974947;28;20053;-76
2023/03/21 02:43:19;;;;;;;49.90;28.20;;;9.40;99.90;;;;;;4970310;28;20125;-76
2023/03/21 02:45:53;;;;;;;66.55;31.00;;;9.40;99.90;;;;;;4950977;28;20149;-75
2023/03/21 02:48:25;;;;;;;47.22;27.35;;;9.40;99.90;;;;;;4965331;28;20579;-76
2023/03/21 02:50:53;;;;;;;44.03;29.08;;;9.40;99.90;;;;;;4971559;28;20054;-76
2023/03/21 02:53:23;;;;;;;59.63;30.85;;;9.40;99.90;;;;;;4977370;28;20093;-76
2023/03/21 02:55:51;;;;;;;44.45;26.23;;;9.40;99.90;;;;;;4986583;28;20519;-76
2023/03/21 02:58:21;;;;;;;57.42;29.10;;;9.40;99.90;;;;;;4968165;28;20061;-75
2023/03/21 03:00:48;;;;;;;49.53;28.17;;;9.50;99.90;;;;;;4969959;28;20047;-76
2023/03/21 03:03:14;;;;;;;58.28;33.03;;;9.50;99.90;;;;;;4980562;28;20064;-75
2023/03/21 03:05:49;;;;;;;55.00;29.67;;;9.50;99.90;;;;;;4968712;28;20482;-75
2023/03/21 03:08:27;;;;;;;45.72;28.10;;;9.40;99.90;;;;;;4972374;28;20058;-75
2023/03/21 03:11:13;;;;;;;64.85;31.30;;;9.40;99.90;;;;;;4989686;28;20116;-75
2023/03/21 03:14:01;;;;;;;47.10;26.17;;;9.50;99.90;;;;;;4986325;28;20060;-76
2023/03/21 03:16:30;;;;;;;50.67;28.02;;;9.40;99.90;;;;;;4987633;28;20045;-75
2023/03/21 03:19:03;;;;;;;48.05;28.27;;;9.50;99.90;;;;;;4970054;28;20392;-75
2023/03/21 03:21:48;;;;;;;52.25;27.60;;;9.40;99.90;;;;;;4972008;28;20046;-75
2023/03/21 03:24:16;;;;;;;50.15;26.80;;;9.40;99.90;;;;;;4982037;28;20132;-75
2023/03/21 03:26:54;;;;;;;48.47;26.25;;;9.40;99.90;;;;;;4988067;28;20046;-75
2023/03/21 03:29:21;;;;;;;41.88;24.55;;;9.50;99.90;;;;;;4986807;28;20042;-75
2023/03/21 03:32:00;;;;;;;45.17;25.55;;;9.50;99.90;;;;;;4971143;28;20050;-76
2023/03/21 03:34:38;;;;;;;48.50;25.00;;;9.40;99.90;;;;;;4986212;28;20066;-76
2023/03/21 03:37:06;;;;;;;36.80;23.42;;;9.50;99.90;;;;;;4973767;28;20054;-75
2023/03/21 03:39:38;;;;;;;39.17;21.58;;;9.50;99.90;;;;;;4972030;28;20051;-76
2023/03/21 03:42:29;;;;;;;37.97;22.90;;;9.50;99.90;;;;;;4970728;28;20104;-76
2023/03/21 03:44:55;;;;;;;36.20;21.48;;;9.40;99.90;;;;;;4974605;28;20059;-76
2023/03/21 03:47:34;;;;;;;36.33;21.48;;;9.40;99.90;;;;;;4977460;28;20085;-75
2023/03/21 03:50:11;;;;;;;44.95;24.55;;;9.40;99.90;;;;;;4988028;28;20451;-76
2023/03/21 03:52:51;;;;;;;35.20;21.30;;;9.50;99.90;;;;;;4985195;28;20126;-75
2023/03/21 03:55:21;;;;;;;39.63;24.00;;;9.50;99.90;;;;;;4969678;28;20039;-75
2023/03/21 03:57:47;;;;;;;35.90;20.23;;;9.40;99.90;;;;;;4987185;28;20050;-75
2023/03/21 04:00:15;;;;;;;43.45;24.92;;;9.50;99.90;;;;;;4970815;28;20101;-75
2023/03/21 04:02:42;;;;;;;38.65;22.63;;;9.40;99.90;;;;;;4988395;28;20550;-75
2023/03/21 04:05:08;;;;;;;42.95;25.17;;;9.50;99.90;;;;;;4988020;28;20559;-75
2023/03/21 04:07:34;;;;;;;41.38;23.50;;;9.40;99.90;;;;;;4984071;28;20142;-76
2023/03/21 04:10:00;;;;;;;43.30;24.20;;;9.40;99.90;;;;;;4987514;28;20042;-75
2023/03/21 04:12:26;;;;;;;37.65;23.80;;;9.40;99.90;;;;;;4984859;28;20077;-75
2023/03/21 04:14:51;;;;;;;41.05;23.05;;;9.40;99.90;;;;;;4970619;28;20042;-75
2023/03/21 04:17:18;;;;;;;44.65;25.90;;;9.40;99.90;;;;;;4988024;28;20109;-75
2023/03/21 04:19:45;;;;;;;39.13;22.67;;;9.30;99.90;;;;;;4969571;28;20125;-75
2023/03/21 04:22:11;;;;;;;35.75;22.80;;;9.40;99.90;;;;;;4974197;28;20097;-75
2023/03/21 04:24:38;;;;;;;35.28;22.23;;;9.40;99.90;;;;;;4987213;28;20082;-76
2023/03/21 04:27:04;;;;;;;34.10;21.25;;;9.40;99.90;;;;;;4985504;28;20403;-75
2023/03/21 04:29:31;;;;;;;34.67;21.90;;;9.40;99.90;;;;;;4989287;28;20064;-75
2023/03/21 04:31:56;;;;;;;36.80;22.33;;;9.40;99.90;;;;;;4992857;28;20536;-75
2023/03/21 04:34:22;;;;;;;33.22;22.67;;;9.40;99.90;;;;;;4986022;28;20078;-75
2023/03/21 04:36:52;;;;;;;36.28;23.02;;;9.50;99.90;;;;;;4986402;28;20046;-75
2023/03/21 04:39:19;;;;;;;31.75;21.75;;;9.50;99.90;;;;;;4969760;28;20046;-75
2023/03/21 04:41:45;;;;;;;30.80;21.02;;;9.40;99.90;;;;;;4972159;28;20097;-75
2023/03/21 04:44:14;;;;;;;33.17;22.27;;;9.40;99.90;;;;;;4972350;28;20130;-75
2023/03/21 04:46:40;;;;;;;34.78;21.55;;;9.30;99.90;;;;;;4989717;28;20054;-75
2023/03/21 04:49:06;;;;;;;34.28;21.45;;;9.40;99.90;;;;;;4972688;28;20061;-75
2023/03/21 04:51:32;;;;;;;27.88;19.48;;;9.40;99.90;;;;;;4973859;28;20058;-75
2023/03/21 04:53:58;;;;;;;32.05;20.45;;;9.40;99.90;;;;;;4990437;28;20510;-75
2023/03/21 04:56:30;;;;;;;38.92;21.55;;;9.40;99.90;;;;;;4974418;28;20054;-76
2023/03/21 04:59:01;;;;;;;31.10;21.23;;;9.40;99.90;;;;;;4991790;28;20488;-75
2023/03/21 05:01:29;;;;;;;37.17;24.00;;;9.40;99.90;;;;;;4971657;28;20042;-75
2023/03/21 05:03:59;;;;;;;33.20;21.83;;;9.40;99.90;;;;;;4956138;28;20050;-75
2023/03/21 05:06:26;;;;;;;34.83;22.42;;;9.30;99.90;;;;;;4973806;28;20054;-75
2023/03/21 05:08:53;;;;;;;38.90;23.80;;;9.40;99.90;;;;;;4989736;28;20586;-75
2023/03/21 05:11:19;;;;;;;35.22;23.13;;;9.40;99.90;;;;;;4987106;28;20050;-74
2023/03/21 05:13:45;;;;;;;35.72;22.08;;;9.40;99.90;;;;;;4972613;28;20381;-74
2023/03/21 05:16:10;;;;;;;32.83;22.27;;;9.40;99.90;;;;;;4974415;28;20046;-74
2023/03/21 05:18:37;;;;;;;33.88;20.73;;;9.40;99.90;;;;;;4975121;28;20129;-74
2023/03/21 05:21:06;;;;;;;40.58;23.00;;;9.40;99.90;;;;;;4991958;28;20395;-75
2023/03/21 05:23:37;;;;;;;37.22;23.90;;;9.40;99.90;;;;;;4990825;28;20058;-74
2023/03/21 05:26:07;;;;;;;32.38;21.13;;;9.40;99.90;;;;;;4990589;28;20042;-74
2023/03/21 05:28:35;;;;;;;39.28;24.13;;;9.30;99.90;;;;;;4990207;28;20133;-74
2023/03/21 05:31:03;;;;;;;37.78;23.90;;;9.40;99.90;;;;;;4986016;28;20055;-74
2023/03/21 05:33:29;;;;;;;37.27;24.67;;;9.40;99.90;;;;;;4972209;28;20042;-74
2023/03/21 05:35:55;;;;;;;37.88;25.42;;;9.40;99.90;;;;;;4967940;28;20411;-74
2023/03/21 05:38:21;;;;;;;49.72;24.67;;;9.40;99.90;;;;;;4969254;28;20046;-74
2023/03/21 05:40:48;;;;;;;37.15;24.95;;;9.40;99.90;;;;;;4972462;28;20046;-74
2023/03/21 05:43:14;;;;;;;38.70;24.38;;;9.40;99.90;;;;;;4973007;28;20081;-74
2023/03/21 05:45:41;;;;;;;39.15;26.63;;;9.40;99.90;;;;;;4988590;28;20062;-74
2023/03/21 05:48:06;;;;;;;39.22;24.77;;;9.40;99.90;;;;;;4983804;28;20042;-73
2023/03/21 05:50:32;;;;;;;32.60;23.05;;;9.40;99.90;;;;;;4989646;28;20060;-74
2023/03/21 05:52:58;;;;;;;38.42;25.95;;;9.40;99.90;;;;;;4986315;28;20057;-74
2023/03/21 05:55:24;;;;;;;41.78;25.88;;;9.40;99.90;;;;;;4972148;28;20050;-74
2023/03/21 05:57:50;;;;;;;46.97;28.98;;;9.40;99.90;;;;;;4972761;28;20042;-74
2023/03/21 06:00:17;;;;;;;41.58;27.73;;;9.40;99.90;;;;;;4989309;28;20123;-75
2023/03/21 06:02:43;;;;;;;47.88;32.22;;;9.40;99.90;;;;;;4988987;28;20050;-75
2023/03/21 06:05:09;;;;;;;50.97;31.35;;;9.40;99.90;;;;;;4989843;28;20508;-75
2023/03/21 06:07:35;;;;;;;44.75;30.67;;;9.40;99.90;;;;;;4966720;28;20049;-75
2023/03/21 06:10:02;;;;;;;48.10;30.88;;;9.30;99.90;;;;;;4971324;28;20488;-75
2023/03/21 06:12:28;;;;;;;48.33;31.85;;;9.40;99.90;;;;;;4989348;28;20042;-74
2023/03/21 06:14:54;;;;;;;62.60;35.55;;;9.30;99.90;;;;;;4972121;28;20097;-74
2023/03/21 06:17:20;;;;;;;61.33;34.83;;;9.40;99.90;;;;;;4989373;28;20034;-74
2023/03/21 06:19:45;;;;;;;59.30;36.80;;;9.40;99.90;;;;;;4989372;28;20491;-74
2023/03/21 06:22:11;;;;;;;57.50;36.47;;;9.40;99.90;;;;;;4973085;28;20427;-74
2023/03/21 06:24:38;;;;;;;59.60;35.58;;;9.30;99.90;;;;;;4970343;28;20054;-75
2023/03/21 06:27:04;;;;;;;51.95;33.70;;;9.40;99.90;;;;;;4970409;28;20054;-74
2023/03/21 06:29:30;;;;;;;59.15;35.45;;;9.40;99.90;;;;;;4984708;28;20595;-74
2023/03/21 06:31:56;;;;;;;54.42;33.97;;;9.40;99.90;;;;;;4971733;28;20451;-75
2023/03/21 06:34:22;;;;;;;50.80;32.10;;;9.30;99.90;;;;;;4987969;28;20042;-75
2023/03/21 06:36:47;;;;;;;55.92;34.13;;;9.40;99.90;;;;;;4964855;28;20046;-75
2023/03/21 06:39:14;;;;;;;59.25;34.83;;;9.40;99.90;;;;;;4970939;28;20061;-74
2023/03/21 06:41:40;;;;;;;56.40;34.60;;;9.40;99.90;;;;;;4970869;28;20492;-74
2023/03/21 06:44:06;;;;;;;54.35;34.45;;;9.40;99.90;;;;;;4986757;28;20069;-75
2023/03/21 06:46:32;;;;;;;54.25;34.28;;;9.40;99.90;;;;;;4984772;28;20038;-74
2023/03/21 06:48:58;;;;;;;53.17;32.35;;;9.40;99.90;;;;;;4953941;28;20053;-75
2023/03/21 06:51:24;;;;;;;52.78;32.40;;;9.40;99.90;;;;;;4987308;28;20112;-75
2023/03/21 06:53:49;;;;;;;48.10;30.33;;;9.40;99.90;;;;;;4966768;28;20789;-75
2023/03/21 06:56:15;;;;;;;50.22;32.45;;;9.40;99.90;;;;;;4986975;28;20062;-74
2023/03/21 06:58:41;;;;;;;46.80;30.60;;;9.30;99.90;;;;;;4979833;28;20069;-75
2023/03/21 07:01:07;;;;;;;53.08;32.42;;;9.40;99.90;;;;;;4980708;28;20104;-74
2023/03/21 07:03:34;;;;;;;50.30;31.45;;;9.50;99.90;;;;;;4966758;28;20113;-75
2023/03/21 07:06:06;;;;;;;49.25;29.27;;;9.50;99.90;;;;;;4987417;28;20487;-75
2023/03/21 07:08:32;;;;;;;45.00;27.95;;;9.40;99.90;;;;;;4970541;28;20047;-74
2023/03/21 07:10:57;;;;;;;44.92;28.33;;;9.40;99.90;;;;;;4981808;28;20046;-74
2023/03/21 07:13:23;;;;;;;38.72;23.88;;;9.50;99.90;;;;;;4986126;28;20046;-74
2023/03/21 07:15:49;;;;;;;40.30;23.92;;;9.50;99.90;;;;;;4969696;28;20450;-74
2023/03/21 07:18:15;;;;;;;39.13;25.80;;;9.60;99.90;;;;;;4965837;28;20046;-74
2023/03/21 07:20:44;;;;;;;39.28;23.73;;;9.50;99.90;;;;;;4953757;28;20545;-75
2023/03/21 07:23:10;;;;;;;35.67;23.73;;;9.50;99.90;;;;;;4985333;28;20058;-75
2023/03/21 07:25:36;;;;;;;34.08;21.52;;;9.60;99.90;;;;;;4969274;28;20066;-75
2023/03/21 07:28:07;;;;;;;32.13;21.23;;;9.50;99.90;;;;;;4969114;28;20049;-74
2023/03/21 07:30:33;;;;;;;32.47;21.27;;;9.60;99.90;;;;;;4973881;28;20173;-75
2023/03/21 07:32:59;;;;;;;27.95;18.77;;;9.50;99.90;;;;;;4983029;28;20053;-75
2023/03/21 07:35:25;;;;;;;25.00;18.40;;;9.60;99.90;;;;;;4983544;28;20038;-75
2023/03/21 07:37:51;;;;;;;21.23;16.50;;;9.60;99.90;;;;;;4985649;28;20046;-75
2023/03/21 07:40:17;;;;;;;23.80;16.73;;;9.60;99.90;;;;;;4973240;28;20046;-74
2023/03/21 07:42:42;;;;;;;25.10;18.15;;;9.60;99.90;;;;;;4977905;28;20089;-74
2023/03/21 07:45:09;;;;;;;24.13;16.95;;;9.60;99.90;;;;;;4971073;28;20423;-74
2023/03/21 07:47:35;;;;;;;24.35;15.73;;;9.70;99.90;;;;;;4969443;28;20050;-74
2023/03/21 07:50:03;;;;;;;27.00;19.33;;;9.70;99.90;;;;;;4988013;28;20411;-74
2023/03/21 07:52:29;;;;;;;26.95;18.25;;;9.70;99.90;;;;;;4986180;28;20054;-74
2023/03/21 07:54:55;;;;;;;25.67;18.92;;;9.70;99.90;;;;;;4971526;28;20050;-74
2023/03/21 07:57:20;;;;;;;27.70;20.27;;;9.80;99.90;;;;;;4983956;28;20053;-74
2023/03/21 07:59:46;;;;;;;25.63;18.13;;;9.70;99.90;;;;;;4984664;28;20584;-74
2023/03/21 08:02:16;;;;;;;25.70;19.40;;;9.70;99.90;;;;;;4972393;28;20053;-74
2023/03/21 08:04:42;;;;;;;26.63;19.50;;;9.80;99.90;;;;;;4990715;28;20104;-74
2023/03/21 08:07:09;;;;;;;23.85;19.00;;;9.70;99.90;;;;;;4991256;28;20800;-75
2023/03/21 08:09:36;;;;;;;24.25;18.48;;;9.80;99.90;;;;;;4989108;28;20088;-75
2023/03/21 08:12:03;;;;;;;28.58;19.15;;;9.80;99.90;;;;;;4991804;28;20180;-75
2023/03/21 08:14:29;;;;;;;26.52;19.42;;;9.70;99.90;;;;;;4971972;28;20047;-75
2023/03/21 08:16:54;;;;;;;24.67;18.50;;;9.80;99.90;;;;;;4971450;28;20130;-75
2023/03/21 08:19:21;;;;;;;23.08;18.52;;;9.70;99.90;;;;;;4968401;28;20112;-75
2023/03/21 08:21:48;;;;;;;29.20;19.20;;;9.80;99.90;;;;;;4990324;28;20042;-75
2023/03/21 08:24:15;;;;;;;25.52;19.25;;;9.70;99.90;;;;;;4990816;28;20504;-75
2023/03/21 08:26:43;;;;;;;30.52;23.40;;;9.80;99.90;;;;;;4972462;28;20153;-75
2023/03/21 08:29:08;;;;;;;30.35;21.30;;;9.80;99.90;;;;;;4990294;28;20054;-75
2023/03/21 08:31:35;;;;;;;29.77;20.83;;;9.80;99.90;;;;;;4975350;28;20492;-75
2023/03/21 08:34:00;;;;;;;32.97;23.70;;;9.70;99.90;;;;;;4957661;28;20046;-75
2023/03/21 08:36:26;;;;;;;27.27;20.20;;;9.80;99.90;;;;;;4973897;28;20046;-74
2023/03/21 08:38:55;;;;;;;29.95;22.25;;;9.80;99.90;;;;;;4973678;28;20097;-75
2023/03/21 08:41:23;;;;;;;31.52;22.58;;;9.80;99.90;;;;;;4973769;28;20054;-75
2023/03/21 08:43:49;;;;;;;25.05;19.95;;;9.90;99.90;;;;;;4988830;28;20518;-75
2023/03/21 08:46:15;;;;;;;31.52;21.00;;;9.90;99.90;;;;;;4971620;28;20050;-75
2023/03/21 08:48:41;;;;;;;25.98;19.73;;;9.90;99.90;;;;;;4990996;28;20046;-75
2023/03/21 08:51:07;;;;;;;27.23;19.98;;;9.90;99.90;;;;;;4989788;28;20042;-75
2023/03/21 08:53:33;;;;;;;30.77;21.23;;;9.90;99.90;;;;;;4988772;28;20077;-75
2023/03/21 08:55:59;;;;;;;28.35;20.65;;;10.00;99.90;;;;;;4975396;28;20084;-75
2023/03/21 08:58:25;;;;;;;26.30;20.48;;;10.00;99.90;;;;;;4971558;28;20256;-75
2023/03/21 09:00:51;;;;;;;28.52;19.35;;;10.00;99.90;;;;;;4971622;28;20035;-75
2023/03/21 09:03:16;;;;;;;24.67;19.88;;;10.00;99.90;;;;;;4973211;28;20109;-75
2023/03/21 09:05:44;;;;;;;29.67;20.05;;;10.00;99.90;;;;;;4975984;28;20049;-75
2023/03/21 09:08:11;;;;;;;27.48;19.77;;;10.00;99.90;;;;;;4990397;28;20905;-75
2023/03/21 09:10:38;;;;;;;25.83;19.77;;;10.00;99.90;;;;;;4991039;28;20054;-75
2023/03/21 09:13:04;;;;;;;29.65;20.73;;;10.00;99.90;;;;;;4988985;28;20070;-76
2023/03/21 09:15:30;;;;;;;28.77;19.70;;;10.00;99.90;;;;;;4972395;28;20058;-75
2023/03/21 09:18:11;;;;;;;30.40;19.75;;;10.00;99.90;;;;;;4973868;28;20106;-75
2023/03/21 09:20:39;;;;;;;25.50;19.00;;;10.10;99.90;;;;;;4988996;28;20054;-75
2023/03/21 09:23:05;;;;;;;32.17;21.88;;;10.00;99.90;;;;;;4971990;28;20056;-75
2023/03/21 09:25:31;;;;;;;32.15;21.23;;;10.00;99.90;;;;;;4971276;28;20502;-75
2023/03/21 09:27:58;;;;;;;33.17;22.60;;;10.00;99.90;;;;;;4990909;28;20047;-75
2023/03/21 09:30:24;;;;;;;35.45;23.52;;;10.10;99.90;;;;;;4970751;28;20512;-75
2023/03/21 09:32:52;;;;;;;38.78;25.08;;;10.10;99.90;;;;;;4972568;28;20050;-75
2023/03/21 09:35:18;;;;;;;37.70;24.80;;;10.10;99.90;;;;;;4989425;28;20050;-76
2023/03/21 09:37:46;;;;;;;40.92;26.40;;;10.10;99.90;;;;;;4976625;28;20046;-76
2023/03/21 09:40:17;;;;;;;40.58;25.55;;;10.10;99.90;;;;;;4973011;28;20082;-76
2023/03/21 09:43:01;;;;;;;38.78;25.45;;;10.10;99.90;;;;;;4982900;28;20411;-76
2023/03/21 09:45:34;;;;;;;38.05;26.52;;;10.10;99.90;;;;;;4983825;28;20046;-75
2023/03/21 09:48:01;;;;;;;43.70;29.02;;;10.10;99.90;;;;;;4984539;28;20460;-76
2023/03/21 09:50:35;;;;;;;36.08;25.45;;;10.10;99.90;;;;;;4987398;28;20133;-76
2023/03/21 09:53:15;;;;;;;36.63;25.92;;;10.10;99.90;;;;;;4975410;28;20081;-76
2023/03/21 09:55:43;;;;;;;37.60;26.55;;;10.10;99.90;;;;;;4988320;28;20096;-75
2023/03/21 09:58:35;;;;;;;37.25;25.08;;;10.10;99.90;;;;;;4990412;28;20041;-76
2023/03/21 10:01:28;;;;;;;52.30;27.50;;;10.10;99.90;;;;;;4982359;28;20519;-76
2023/03/21 10:03:55;;;;;;;39.85;26.00;;;10.10;99.90;;;;;;4972356;28;20499;-76
2023/03/21 10:06:27;;;;;;;53.20;30.95;;;10.10;99.90;;;;;;4970311;28;20447;-75
2023/03/21 10:09:00;;;;;;;41.13;28.10;;;10.10;99.90;;;;;;4972721;28;20117;-76
2023/03/21 10:11:37;;;;;;;36.33;24.63;;;10.20;99.90;;;;;;4972216;28;20049;-75
2023/03/21 10:14:11;;;;;;;51.87;30.33;;;10.10;99.90;;;;;;4989821;28;20053;-75
2023/03/21 10:16:42;;;;;;;37.78;26.20;;;10.20;99.90;;;;;;4985258;28;20042;-75
2023/03/21 10:19:16;;;;;;;39.03;26.85;;;10.10;99.90;;;;;;4990823;28;20038;-75
2023/03/21 10:21:45;;;;;;;41.22;27.55;;;10.10;99.90;;;;;;4986188;28;20053;-75
2023/03/21 10:24:15;;;;;;;40.33;26.58;;;10.10;99.90;;;;;;4970519;28;20070;-75
2023/03/21 10:26:42;;;;;;;40.80;25.20;;;10.20;99.90;;;;;;4972320;28;20050;-75
2023/03/21 10:29:12;;;;;;;39.10;23.27;;;10.20;99.90;;;;;;4971661;28;20061;-76
2023/03/21 10:31:40;;;;;;;49.08;29.20;;;10.10;99.90;;;;;;4970674;28;20050;-75
2023/03/21 10:34:22;;;;;;;48.83;30.50;;;10.20;99.90;;;;;;4971561;28;20054;-75
2023/03/21 10:36:48;;;;;;;31.80;23.55;;;10.20;99.90;;;;;;4978400;28;20495;-75
2023/03/21 10:39:25;;;;;;;38.08;25.80;;;10.20;99.90;;;;;;4971041;28;20038;-75
2023/03/21 10:41:50;;;;;;;52.33;27.92;;;10.20;99.90;;;;;;4972106;28;20121;-75
2023/03/21 10:44:17;;;;;;;41.70;24.25;;;10.30;99.90;;;;;;4971201;28;20150;-75
2023/03/21 10:46:55;;;;;;;49.90;28.52;;;10.20;99.90;;;;;;4966178;28;20089;-75
2023/03/21 10:49:21;;;;;;;38.33;24.00;;;10.30;99.90;;;;;;4986316;28;20132;-76
2023/03/21 10:51:50;;;;;;;39.50;25.10;;;10.30;99.90;;;;;;4974161;28;20277;-75
2023/03/21 10:54:20;;;;;;;41.42;25.63;;;10.40;99.90;;;;;;4971093;28;20586;-76
2023/03/21 10:56:59;;;;;;;77.55;38.08;;;10.40;99.90;;;;;;4987391;28;20093;-76
2023/03/21 10:59:34;;;;;;;51.97;29.67;;;10.40;99.90;;;;;;4987524;28;20038;-76
2023/03/21 11:02:04;;;;;;;44.13;28.83;;;10.40;99.90;;;;;;4980396;28;20052;-75
2023/03/21 11:04:30;;;;;;;68.93;33.58;;;10.40;99.90;;;;;;4987589;28;20520;-76
2023/03/21 11:07:06;;;;;;;64.20;31.83;;;10.40;99.90;;;;;;4987304;28;20046;-76
2023/03/21 11:09:48;;;;;;;56.28;30.17;;;10.40;99.90;;;;;;4971325;28;20500;-75
2023/03/21 11:12:16;;;;;;;112.13;46.15;;;10.50;99.90;;;;;;4968625;28;20058;-75
2023/03/21 11:14:49;;;;;;;67.20;36.60;;;10.50;99.90;;;;;;4988355;28;20080;-75
2023/03/21 11:17:15;;;;;;;43.17;25.05;;;10.50;99.90;;;;;;4989901;28;20088;-75
2023/03/21 11:19:53;;;;;;;48.38;27.20;;;10.50;99.90;;;;;;4961833;28;20126;-75
2023/03/21 11:22:25;;;;;;;30.00;22.23;;;10.60;99.90;;;;;;4971314;28;20042;-75
2023/03/21 11:24:57;;;;;;;34.70;22.13;;;10.60;99.90;;;;;;4969665;28;20061;-75
2023/03/21 11:27:28;;;;;;;31.67;22.30;;;10.60;99.90;;;;;;4987295;28;20041;-75
2023/03/21 11:29:56;;;;;;;31.20;21.95;;;10.70;99.90;;;;;;4969965;28;20058;-76
2023/03/21 11:32:36;;;;;;;31.33;22.55;;;10.70;99.90;;;;;;4988051;28;20046;-75
2023/03/21 11:35:17;;;;;;;36.42;23.50;;;10.80;99.90;;;;;;4987275;28;20050;-76
2023/03/21 11:37:46;;;;;;;37.42;23.20;;;10.90;99.90;;;;;;4982943;28;20542;-76
2023/03/21 11:40:31;;;;;;;28.00;19.95;;;10.90;99.90;;;;;;4970247;28;20085;-76
2023/03/21 11:42:57;;;;;;;33.25;23.52;;;11.00;99.90;;;;;;4964879;28;20050;-76
2023/03/21 11:45:28;;;;;;;31.17;23.05;;;11.00;99.90;;;;;;4987076;28;20085;-76
2023/03/21 11:47:56;;;;;;;32.40;22.38;;;11.10;99.90;;;;;;4987749;28;20418;-76
2023/03/21 11:50:33;;;;;;;27.65;21.25;;;11.20;99.90;;;;;;4987342;28;20491;-76
2023/03/21 11:53:19;;;;;;;28.30;22.42;;;11.20;99.90;;;;;;4969876;28;20415;-76
2023/03/21 11:55:52;;;;;;;25.45;19.95;;;11.30;99.90;;;;;;4988398;28;20424;-75
2023/03/21 11:58:47;;;;;;;25.58;18.33;;;11.30;99.90;;;;;;4987866;28;20050;-76
2023/03/21 12:01:26;;;;;;;26.80;18.17;;;11.40;99.90;;;;;;4929742;28;20055;-75
2023/03/21 12:04:18;;;;;;;26.60;18.05;;;11.40;99.90;;;;;;4985596;28;20086;-75
2023/03/21 12:06:59;;;;;;;25.25;18.60;;;11.40;99.90;;;;;;4965057;28;20078;-75
2023/03/21 12:10:02;;;;;;;30.35;17.63;;;11.50;99.90;;;;;;4966682;28;20057;-75
2023/03/21 12:12:41;;;;;;;21.98;15.73;;;11.50;99.90;;;;;;4980881;28;20511;-75
2023/03/21 12:15:27;;;;;;;25.10;16.70;;;11.50;99.90;;;;;;4967923;28;20096;-75
2023/03/21 12:18:11;;;;;;;25.25;17.08;;;11.50;99.90;;;;;;4937392;28;20128;-74
2023/03/21 12:20:59;;;;;;;19.27;15.07;;;11.50;99.90;;;;;;4967659;28;20419;-74
2023/03/21 12:23:46;;;;;;;24.48;14.70;;;11.60;99.90;;;;;;4965605;28;20050;-74
2023/03/21 12:26:28;;;;;;;23.60;14.95;;;11.60;99.90;;;;;;4971599;28;20050;-74
2023/03/21 12:29:09;;;;;;;21.20;14.05;;;11.70;99.90;;;;;;4968386;28;20054;-74
2023/03/21 12:32:25;;;;;;;19.45;13.10;;;11.70;99.90;;;;;;4968663;28;20515;-73
2023/03/21 12:35:15;;;;;;;19.23;14.27;;;11.80;99.90;;;;;;4919172;28;20059;-74
2023/03/21 12:37:47;;;;;;;23.98;13.82;;;11.80;99.90;;;;;;4970858;28;20050;-74
2023/03/21 12:40:18;;;;;;;20.42;13.63;;;11.90;99.90;;;;;;4986836;28;20054;-74
2023/03/21 12:43:11;;;;;;;21.40;13.55;;;11.90;99.90;;;;;;4982879;28;20050;-74
2023/03/21 12:45:41;;;;;;;25.67;13.32;;;11.80;99.90;;;;;;4985656;28;20038;-74
2023/03/21 12:48:37;;;;;;;22.60;12.27;;;11.80;99.90;;;;;;4989413;28;20133;-74
2023/03/21 12:51:09;;;;;;;20.48;14.52;;;11.80;99.90;;;;;;4974293;28;20046;-74
2023/03/21 12:53:50;;;;;;;15.57;12.27;;;11.70;99.90;;;;;;4968864;28;20105;-74